Time;durP1;ratioP1;P1;durP2;ratioP2;P2;SDS_P1;SDS_P2;PMS_P1;PMS_P2;Temp;Humidity;BMP_temperature;BMP_pressure;BME280_temperature;BME280_humidity;BME280_pressure;Samples;Min_cycle;Max_cycle;Signal;HPM_P1;HPM_P2
2024/03/28 00:00:31;;;;;;;5.20;4.38;;;19.40;59.10;;;;;;4998414;28;20454;-56
2024/03/28 00:02:56;;;;;;;5.28;3.92;;;19.50;59.10;;;;;;5001681;28;20117;-58
2024/03/28 00:05:22;;;;;;;5.80;4.47;;;19.40;59.10;;;;;;4998040;28;20049;-48
2024/03/28 00:07:47;;;;;;;6.50;4.40;;;19.40;59.00;;;;;;4989131;28;20068;-52
2024/03/28 00:10:13;;;;;;;5.47;4.30;;;19.40;59.00;;;;;;4999813;28;20037;-55
2024/03/28 00:12:38;;;;;;;5.15;4.30;;;19.40;59.10;;;;;;5001505;28;20030;-48
2024/03/28 00:15:04;;;;;;;5.05;4.40;;;19.40;59.10;;;;;;4999423;28;21790;-51
2024/03/28 00:17:32;;;;;;;5.65;4.10;;;19.50;59.10;;;;;;5000813;28;20034;-49
2024/03/28 00:19:58;;;;;;;5.40;4.28;;;19.40;59.10;;;;;;4999814;28;20431;-59
2024/03/28 00:22:23;;;;;;;5.18;4.10;;;19.40;59.00;;;;;;5000972;28;20061;-51
2024/03/28 00:24:49;;;;;;;4.20;3.80;;;19.40;59.10;;;;;;5001071;28;20024;-49
2024/03/28 00:27:14;;;;;;;4.50;3.63;;;19.40;59.00;;;;;;5001070;28;20026;-49
2024/03/28 00:29:39;;;;;;;5.90;4.55;;;19.40;59.10;;;;;;4999916;28;20164;-57
2024/03/28 00:32:05;;;;;;;4.63;3.90;;;19.40;59.20;;;;;;4998185;28;20048;-57
2024/03/28 00:34:31;;;;;;;5.00;3.80;;;19.40;59.10;;;;;;4998851;28;20026;-53
2024/03/28 00:36:56;;;;;;;5.18;4.03;;;19.40;59.10;;;;;;4998464;28;20648;-54
2024/03/28 00:39:21;;;;;;;5.18;4.03;;;19.40;59.10;;;;;;5003264;28;20076;-54
2024/03/28 00:41:47;;;;;;;4.60;3.72;;;19.40;59.10;;;;;;4987820;28;20053;-49
2024/03/28 00:44:13;;;;;;;4.00;3.33;;;19.40;59.10;;;;;;5003852;28;20061;-49
2024/03/28 00:46:38;;;;;;;5.47;3.83;;;19.40;59.10;;;;;;4999931;28;20026;-52
2024/03/28 00:49:04;;;;;;;4.13;3.60;;;19.40;59.10;;;;;;5002198;28;20034;-53
2024/03/28 00:51:29;;;;;;;4.82;3.67;;;19.40;59.10;;;;;;5004614;28;20030;-52
2024/03/28 00:53:55;;;;;;;4.93;3.75;;;19.40;59.10;;;;;;5004365;28;20080;-57
2024/03/28 00:56:20;;;;;;;4.10;3.53;;;19.40;59.10;;;;;;5000800;28;20522;-50
2024/03/28 00:58:45;;;;;;;4.65;3.40;;;19.40;59.10;;;;;;5004018;28;20156;-51
2024/03/28 01:01:11;;;;;;;5.32;3.97;;;19.40;59.10;;;;;;5003548;28;20479;-49
2024/03/28 01:03:36;;;;;;;3.60;3.30;;;19.40;59.10;;;;;;5002538;28;20080;-56
2024/03/28 01:06:02;;;;;;;5.00;3.85;;;19.40;59.10;;;;;;5003138;28;20041;-55
2024/03/28 01:08:28;;;;;;;4.43;3.60;;;19.40;59.20;;;;;;5004762;28;20030;-48
2024/03/28 01:10:54;;;;;;;5.50;3.92;;;19.40;59.30;;;;;;4993139;28;20037;-49
2024/03/28 01:13:19;;;;;;;4.93;4.13;;;19.40;59.30;;;;;;5004441;28;20111;-51
2024/03/28 01:15:45;;;;;;;4.85;3.50;;;19.30;59.30;;;;;;5005880;28;20061;-50
2024/03/28 01:18:10;;;;;;;5.63;4.03;;;19.40;59.40;;;;;;5004646;28;20033;-49
2024/03/28 01:20:36;;;;;;;3.70;3.38;;;19.30;59.30;;;;;;5003424;28;20711;-50
2024/03/28 01:23:02;;;;;;;4.05;3.20;;;19.30;59.40;;;;;;5005124;28;20525;-52
2024/03/28 01:25:27;;;;;;;3.90;3.30;;;19.30;59.40;;;;;;5000766;28;20037;-56
2024/03/28 01:27:53;;;;;;;4.07;3.33;;;19.30;59.50;;;;;;4994689;28;20034;-51
2024/03/28 01:30:18;;;;;;;4.47;3.55;;;19.20;59.50;;;;;;5004247;28;20088;-49
2024/03/28 01:32:44;;;;;;;4.70;3.95;;;19.20;59.60;;;;;;5003531;28;20135;-49
2024/03/28 01:35:11;;;;;;;4.57;3.13;;;19.20;59.60;;;;;;5002842;28;20025;-58
2024/03/28 01:37:36;;;;;;;5.57;3.70;;;19.20;59.60;;;;;;5003648;28;20034;-49
2024/03/28 01:40:03;;;;;;;4.65;3.78;;;19.20;59.70;;;;;;5004060;28;20037;-53
2024/03/28 01:42:28;;;;;;;3.67;3.25;;;19.10;59.70;;;;;;5002049;28;20034;-49
2024/03/28 01:44:54;;;;;;;4.50;3.38;;;19.20;59.70;;;;;;5002404;28;20036;-52
2024/03/28 01:47:21;;;;;;;3.78;3.30;;;19.10;59.70;;;;;;5001511;28;20038;-52
2024/03/28 01:49:47;;;;;;;3.35;3.05;;;19.10;59.70;;;;;;4983788;28;20113;-49
2024/03/28 01:52:14;;;;;;;3.45;2.97;;;19.10;59.70;;;;;;5006030;28;20145;-52
2024/03/28 01:54:41;;;;;;;3.80;2.90;;;19.10;59.70;;;;;;5001307;28;20026;-53
2024/03/28 01:57:10;;;;;;;4.80;3.38;;;19.10;59.70;;;;;;5001543;28;20038;-49
2024/03/28 01:59:36;;;;;;;4.03;3.00;;;19.20;59.70;;;;;;5001476;28;20034;-60
2024/03/28 02:02:05;;;;;;;3.38;2.85;;;19.20;59.70;;;;;;4999648;28;20088;-50
2024/03/28 02:04:30;;;;;;;3.55;3.00;;;19.20;59.70;;;;;;4998573;28;20030;-55
2024/03/28 02:06:56;;;;;;;5.15;3.25;;;19.20;59.60;;;;;;4997697;28;20042;-52
2024/03/28 02:09:25;;;;;;;4.35;3.17;;;19.20;59.60;;;;;;4998359;28;20533;-54
2024/03/28 02:11:54;;;;;;;4.25;3.42;;;19.20;59.70;;;;;;4999924;28;20121;-54
2024/03/28 02:14:19;;;;;;;4.30;3.10;;;19.20;59.60;;;;;;4999651;28;20701;-50
2024/03/28 02:16:45;;;;;;;3.05;2.75;;;19.20;59.60;;;;;;4996467;28;20022;-50
2024/03/28 02:19:11;;;;;;;3.88;3.00;;;19.20;59.60;;;;;;4994682;28;20029;-55
2024/03/28 02:21:37;;;;;;;3.80;3.38;;;19.20;59.50;;;;;;5000508;28;20026;-55
2024/03/28 02:24:02;;;;;;;3.47;2.95;;;19.20;59.60;;;;;;5001708;28;20110;-51
2024/03/28 02:26:28;;;;;;;3.40;2.67;;;19.20;59.50;;;;;;5000391;28;20022;-55
2024/03/28 02:28:53;;;;;;;3.83;2.85;;;19.20;59.50;;;;;;4999675;28;20034;-50
2024/03/28 02:31:19;;;;;;;3.08;2.50;;;19.20;59.60;;;;;;5003051;28;20069;-53
2024/03/28 02:33:45;;;;;;;3.92;3.13;;;19.20;59.50;;;;;;5001682;28;20026;-55
2024/03/28 02:36:11;;;;;;;3.40;2.75;;;19.20;59.50;;;;;;5001427;28;20565;-51
2024/03/28 02:38:36;;;;;;;3.85;2.78;;;19.20;59.50;;;;;;5004307;28;20060;-58
2024/03/28 02:41:02;;;;;;;3.83;2.88;;;19.20;59.50;;;;;;4996986;28;20124;-51
2024/03/28 02:43:29;;;;;;;3.13;2.55;;;19.20;59.50;;;;;;5003582;28;20041;-51
2024/03/28 02:45:54;;;;;;;3.20;2.60;;;19.20;59.50;;;;;;5000965;28;20038;-55
2024/03/28 02:48:20;;;;;;;3.10;2.58;;;19.20;59.60;;;;;;5003800;28;20495;-54
2024/03/28 02:50:45;;;;;;;3.85;2.83;;;19.20;59.50;;;;;;5002267;28;20037;-54
2024/03/28 02:53:11;;;;;;;2.65;2.33;;;19.20;59.50;;;;;;5002141;28;20495;-50
2024/03/28 02:55:37;;;;;;;2.55;2.33;;;19.20;59.50;;;;;;5004498;28;20041;-52
2024/03/28 02:58:02;;;;;;;2.63;2.20;;;19.20;59.50;;;;;;5002990;28;20038;-53
2024/03/28 03:00:28;;;;;;;3.15;2.13;;;19.20;59.50;;;;;;4986458;28;20037;-54
2024/03/28 03:02:53;;;;;;;3.80;2.45;;;19.20;59.50;;;;;;4976255;28;20042;-53
2024/03/28 03:05:22;;;;;;;2.75;2.30;;;19.20;59.50;;;;;;4977521;28;20026;-55
2024/03/28 03:07:48;;;;;;;3.08;2.38;;;19.20;59.50;;;;;;4971222;28;20683;-58
2024/03/28 03:10:14;;;;;;;2.65;2.38;;;19.20;59.50;;;;;;4982010;28;20042;-56
2024/03/28 03:12:40;;;;;;;4.13;2.53;;;19.20;59.50;;;;;;4996541;28;20045;-57
2024/03/28 03:15:06;;;;;;;2.80;2.17;;;19.20;59.50;;;;;;4999654;28;20747;-54
2024/03/28 03:17:31;;;;;;;2.40;2.10;;;19.20;59.50;;;;;;4995733;28;20038;-55
2024/03/28 03:19:58;;;;;;;2.65;2.30;;;19.20;59.50;;;;;;4997558;28;20503;-50
2024/03/28 03:22:24;;;;;;;3.20;2.40;;;19.20;59.50;;;;;;4999671;28;20181;-56
2024/03/28 03:24:56;;;;;;;2.35;2.10;;;19.10;59.50;;;;;;5001529;28;20101;-59
2024/03/28 03:27:21;;;;;;;2.28;1.90;;;19.20;59.60;;;;;;4996784;28;20022;-56
2024/03/28 03:35:15;;;;;;;2.83;2.20;;;19.10;59.50;;;;;;4999011;28;20077;-51
2024/03/28 03:37:41;;;;;;;2.25;1.92;;;19.10;59.50;;;;;;4998565;28;20042;-54
2024/03/28 03:40:09;;;;;;;2.20;2.00;;;19.10;59.50;;;;;;4995853;28;20033;-52
2024/03/28 03:42:35;;;;;;;2.20;2.00;;;19.10;59.60;;;;;;5001655;28;20029;-54
2024/03/28 03:45:05;;;;;;;2.42;2.10;;;19.10;59.60;;;;;;4980904;28;20064;-53
2024/03/28 03:47:31;;;;;;;2.42;2.20;;;19.10;59.60;;;;;;4998780;28;20030;-54
2024/03/28 03:49:57;;;;;;;2.83;2.20;;;19.10;59.60;;;;;;4997319;28;20083;-52
2024/03/28 03:52:23;;;;;;;1.88;1.70;;;19.10;59.70;;;;;;4999118;28;20037;-61
2024/03/28 03:54:48;;;;;;;2.00;1.80;;;19.10;59.70;;;;;;5002564;28;20040;-55
2024/03/28 03:57:14;;;;;;;2.30;1.98;;;19.10;59.70;;;;;;5000426;28;20026;-52
2024/03/28 03:59:40;;;;;;;2.25;1.77;;;19.10;59.70;;;;;;4996253;28;20400;-54
2024/03/28 04:02:07;;;;;;;2.10;1.77;;;19.10;59.70;;;;;;4958420;28;20499;-52
2024/03/28 04:04:32;;;;;;;2.40;2.15;;;19.10;60.30;;;;;;4994116;28;20031;-53
2024/03/28 04:06:58;;;;;;;1.77;1.63;;;19.10;59.70;;;;;;4994726;28;20045;-52
2024/03/28 04:09:24;;;;;;;1.88;1.63;;;19.00;59.60;;;;;;4997490;28;20033;-55
2024/03/28 04:11:50;;;;;;;2.80;1.90;;;19.10;59.70;;;;;;4972540;28;20018;-54
2024/03/28 04:14:16;;;;;;;2.38;1.77;;;19.10;59.70;;;;;;5007219;28;20079;-58
2024/03/28 04:16:42;;;;;;;2.33;1.60;;;19.00;59.70;;;;;;4997954;28;20498;-52
2024/03/28 04:19:08;;;;;;;1.77;1.38;;;19.00;59.70;;;;;;5004100;28;20112;-55
2024/03/28 04:21:34;;;;;;;1.73;1.40;;;19.10;59.70;;;;;;5002434;28;20495;-53
2024/03/28 04:24:01;;;;;;;2.28;1.40;;;19.00;59.70;;;;;;5006118;28;20080;-53
2024/03/28 04:26:26;;;;;;;1.90;1.67;;;19.10;59.70;;;;;;5004897;28;20506;-51
2024/03/28 04:28:52;;;;;;;1.63;1.52;;;19.00;60.30;;;;;;5003876;28;20125;-52
2024/03/28 04:31:18;;;;;;;2.05;1.75;;;19.00;59.70;;;;;;5002691;28;20062;-51
2024/03/28 04:33:43;;;;;;;2.00;1.73;;;19.00;59.70;;;;;;5001650;28;20030;-53
2024/03/28 04:36:09;;;;;;;2.03;1.40;;;19.00;59.60;;;;;;5001402;28;20427;-53
2024/03/28 04:38:35;;;;;;;1.55;1.20;;;19.00;59.60;;;;;;5004082;28;20025;-53
2024/03/28 04:41:04;;;;;;;1.48;1.25;;;19.00;59.70;;;;;;5002575;28;20034;-50
2024/03/28 04:43:30;;;;;;;1.52;1.25;;;19.00;59.60;;;;;;5005172;28;20033;-50
2024/03/28 04:45:56;;;;;;;1.67;1.48;;;19.00;59.70;;;;;;5002532;28;20022;-50
2024/03/28 04:48:21;;;;;;;2.50;1.50;;;19.00;59.70;;;;;;5001699;28;20037;-52
2024/03/28 04:50:47;;;;;;;2.10;1.48;;;19.00;59.70;;;;;;5002414;28;20108;-54
2024/03/28 04:53:12;;;;;;;1.42;1.17;;;19.00;59.60;;;;;;5005744;28;20033;-52
2024/03/28 04:55:38;;;;;;;1.30;1.20;;;19.00;59.60;;;;;;5003936;28;20033;-53
2024/03/28 04:58:03;;;;;;;1.55;1.20;;;19.00;59.60;;;;;;4998171;28;20487;-55
2024/03/28 05:00:29;;;;;;;1.50;1.30;;;19.00;59.60;;;;;;5005158;28;20033;-51
2024/03/28 05:02:54;;;;;;;1.75;1.25;;;19.00;59.60;;;;;;5003489;28;20048;-55
2024/03/28 05:05:20;;;;;;;1.50;1.05;;;19.00;59.60;;;;;;5004049;28;20044;-54
2024/03/28 05:07:46;;;;;;;1.10;1.00;;;19.00;59.60;;;;;;5006608;28;20026;-53
2024/03/28 05:10:11;;;;;;;1.40;1.25;;;19.00;59.60;;;;;;5001459;28;20054;-55
2024/03/28 05:12:37;;;;;;;2.70;1.40;;;19.00;59.60;;;;;;5006909;28;20117;-52
2024/03/28 05:15:02;;;;;;;1.25;1.15;;;19.00;59.60;;;;;;5002430;28;20030;-54
2024/03/28 05:17:28;;;;;;;1.13;0.85;;;19.00;59.60;;;;;;5006452;28;20022;-51
2024/03/28 05:19:54;;;;;;;1.33;0.98;;;19.00;59.60;;;;;;5002152;28;20117;-53
2024/03/28 05:22:20;;;;;;;1.20;1.00;;;19.00;59.50;;;;;;5006086;28;20403;-53
2024/03/28 05:24:45;;;;;;;1.48;0.90;;;19.00;59.50;;;;;;5001386;28;20582;-52
2024/03/28 05:27:13;;;;;;;1.25;1.00;;;19.00;59.50;;;;;;5000770;28;20049;-53
2024/03/28 05:29:42;;;;;;;1.48;1.00;;;19.00;59.50;;;;;;5002178;28;20033;-52
2024/03/28 05:32:08;;;;;;;1.45;1.20;;;19.10;59.50;;;;;;5006613;28;20069;-52
2024/03/28 05:34:34;;;;;;;1.08;0.90;;;19.10;59.50;;;;;;4999949;28;20077;-51
2024/03/28 05:36:59;;;;;;;1.25;0.90;;;19.10;59.50;;;;;;5003821;28;20116;-52
2024/03/28 05:39:26;;;;;;;1.42;0.98;;;19.10;59.40;;;;;;5002655;28;20391;-52
2024/03/28 05:41:51;;;;;;;1.73;0.90;;;19.10;59.40;;;;;;4998838;28;20069;-52
2024/03/28 05:44:17;;;;;;;1.35;1.08;;;19.10;59.40;;;;;;5002388;28;20026;-52
2024/03/28 05:46:42;;;;;;;1.35;0.95;;;19.10;60.00;;;;;;5003103;28;20030;-53
2024/03/28 05:49:08;;;;;;;1.05;0.85;;;19.10;59.40;;;;;;4998948;28;20527;-53
2024/03/28 05:51:33;;;;;;;0.80;0.80;;;19.10;59.30;;;;;;5002945;28;20037;-53
2024/03/28 05:53:59;;;;;;;0.82;0.60;;;19.10;59.40;;;;;;5002223;28;20038;-53
2024/03/28 05:56:25;;;;;;;0.80;0.57;;;19.10;59.30;;;;;;5000321;28;20398;-52
2024/03/28 05:58:50;;;;;;;0.98;0.88;;;19.10;59.30;;;;;;5001512;28;20038;-52
2024/03/28 06:01:16;;;;;;;0.82;0.60;;;19.10;59.30;;;;;;5003912;28;20035;-51
2024/03/28 06:03:42;;;;;;;1.65;0.88;;;19.10;59.30;;;;;;4997672;28;20026;-52
2024/03/28 06:06:08;;;;;;;1.30;0.80;;;19.10;59.30;;;;;;4995982;28;20068;-52
2024/03/28 06:08:34;;;;;;;1.63;0.73;;;19.10;59.30;;;;;;5001082;28;20037;-52
2024/03/28 06:11:00;;;;;;;2.40;0.60;;;19.10;59.30;;;;;;5001262;28;20029;-51
2024/03/28 06:13:33;;;;;;;1.00;0.80;;;19.10;59.30;;;;;;4994105;28;20033;-52
2024/03/28 06:15:58;;;;;;;0.77;0.63;;;19.10;59.30;;;;;;4997693;28;20026;-54
2024/03/28 06:18:25;;;;;;;1.27;0.63;;;19.10;59.40;;;;;;5000873;28;20049;-54
2024/03/28 06:21:04;;;;;;;1.02;0.70;;;19.10;59.40;;;;;;5003550;28;20049;-50
2024/03/28 06:23:30;;;;;;;0.57;0.55;;;19.10;59.40;;;;;;5001643;28;20156;-50
2024/03/28 06:25:56;;;;;;;0.82;0.50;;;19.10;59.40;;;;;;5001602;28;20037;-49
2024/03/28 06:28:22;;;;;;;0.93;0.85;;;19.10;59.40;;;;;;5003634;28;20025;-50
2024/03/28 06:30:53;;;;;;;1.05;0.80;;;19.10;59.40;;;;;;5002059;28;20045;-52
2024/03/28 06:33:25;;;;;;;0.88;0.82;;;19.10;59.30;;;;;;4984719;28;20026;-53
2024/03/28 06:35:50;;;;;;;0.85;0.50;;;19.10;59.40;;;;;;4984059;28;20030;-53
2024/03/28 06:38:17;;;;;;;0.52;0.52;;;19.10;59.30;;;;;;5004919;28;20211;-50
2024/03/28 06:40:43;;;;;;;1.02;0.88;;;19.10;59.40;;;;;;4995088;28;20112;-52
2024/03/28 06:43:09;;;;;;;0.60;0.50;;;19.10;59.30;;;;;;4995101;28;20510;-51
2024/03/28 06:45:34;;;;;;;0.82;0.47;;;19.10;59.30;;;;;;4997261;28;20025;-50
2024/03/28 06:48:00;;;;;;;1.45;0.50;;;19.10;59.30;;;;;;5003992;28;20038;-52
2024/03/28 06:50:25;;;;;;;1.35;0.82;;;19.10;59.30;;;;;;5003193;28;20037;-52
2024/03/28 06:52:51;;;;;;;0.95;0.80;;;19.10;59.30;;;;;;4999736;28;20038;-52
2024/03/28 06:55:17;;;;;;;1.70;0.75;;;19.10;59.30;;;;;;5003629;28;20534;-51
2024/03/28 06:57:42;;;;;;;0.90;0.60;;;19.10;59.30;;;;;;5003195;28;20049;-52
2024/03/28 07:00:09;;;;;;;1.25;0.65;;;19.10;59.30;;;;;;5001385;28;20061;-51
2024/03/28 07:02:34;;;;;;;0.93;0.85;;;19.10;59.30;;;;;;5007500;28;20075;-51
2024/03/28 07:05:00;;;;;;;1.58;0.65;;;19.10;59.20;;;;;;5001563;28;20033;-53
2024/03/28 07:07:25;;;;;;;1.40;0.95;;;19.20;59.30;;;;;;4998565;28;20037;-53
2024/03/28 07:09:51;;;;;;;3.10;1.00;;;19.10;59.30;;;;;;4997061;28;20042;-53
2024/03/28 07:12:16;;;;;;;1.25;0.70;;;19.10;59.20;;;;;;5001663;28;20109;-52
2024/03/28 07:14:42;;;;;;;1.60;0.70;;;19.10;59.20;;;;;;4999271;28;20108;-50
2024/03/28 07:17:07;;;;;;;1.48;0.88;;;19.10;59.30;;;;;;4999110;28;20120;-51
2024/03/28 07:19:33;;;;;;;2.58;1.08;;;19.20;59.30;;;;;;4979817;28;20081;-52
2024/03/28 07:21:58;;;;;;;2.20;0.80;;;19.20;59.30;;;;;;4999624;28;20388;-58
2024/03/28 07:24:24;;;;;;;1.05;0.95;;;19.10;59.20;;;;;;4999651;28;20038;-52
2024/03/28 07:26:49;;;;;;;4.53;2.08;;;19.20;59.30;;;;;;4999217;28;20033;-53
2024/03/28 07:29:15;;;;;;;5.82;2.83;;;19.20;59.30;;;;;;5000647;28;20767;-51
2024/03/28 07:31:40;;;;;;;6.50;4.13;;;19.20;59.30;;;;;;4999120;28;20037;-52
2024/03/28 07:34:06;;;;;;;5.68;3.95;;;19.20;59.30;;;;;;5002298;28;20033;-53
2024/03/28 07:36:31;;;;;;;8.35;4.13;;;19.20;59.30;;;;;;5002476;28;20395;-54
2024/03/28 07:38:57;;;;;;;7.65;4.55;;;19.20;59.30;;;;;;4977471;28;20157;-53
2024/03/28 07:41:22;;;;;;;5.47;3.80;;;19.20;59.30;;;;;;4973696;28;20033;-52
2024/03/28 07:43:48;;;;;;;6.57;4.25;;;19.20;59.30;;;;;;4978310;28;20058;-50
2024/03/28 07:46:13;;;;;;;5.93;3.80;;;19.20;59.30;;;;;;4973058;28;20603;-52
2024/03/28 07:48:39;;;;;;;8.85;4.88;;;19.20;59.30;;;;;;4976287;28;20037;-51
2024/03/28 07:51:06;;;;;;;8.00;4.55;;;19.20;59.30;;;;;;4974200;28;21095;-55
2024/03/28 07:53:32;;;;;;;8.43;4.43;;;19.20;59.30;;;;;;4973085;28;20120;-50
2024/03/28 07:56:01;;;;;;;10.18;4.38;;;19.20;59.40;;;;;;4965977;28;20065;-52
2024/03/28 07:58:26;;;;;;;10.93;5.68;;;19.20;59.70;;;;;;4960785;28;20201;-53
2024/03/28 08:00:52;;;;;;;8.98;4.78;;;19.20;59.50;;;;;;4978863;28;20038;-52
2024/03/28 08:03:19;;;;;;;11.13;5.30;;;19.20;59.50;;;;;;4968198;28;20844;-53
2024/03/28 08:05:49;;;;;;;7.95;4.45;;;19.20;59.60;;;;;;4969455;28;20552;-52
2024/03/28 08:08:15;;;;;;;11.27;4.97;;;19.20;59.70;;;;;;4978686;28;20037;-51
2024/03/28 08:10:41;;;;;;;11.30;4.40;;;19.10;59.70;;;;;;4949266;28;20432;-51
2024/03/28 08:13:06;;;;;;;9.63;4.75;;;19.10;59.80;;;;;;4960824;28;20042;-51
2024/03/28 08:15:33;;;;;;;9.77;5.07;;;19.10;59.80;;;;;;4974581;28;20173;-51
2024/03/28 08:18:02;;;;;;;14.55;5.15;;;19.00;59.80;;;;;;4971247;28;20192;-55
2024/03/28 08:20:28;;;;;;;10.05;4.80;;;19.00;59.90;;;;;;4969094;28;20065;-51
2024/03/28 08:22:54;;;;;;;9.15;4.40;;;19.00;59.90;;;;;;4992802;28;20061;-51
2024/03/28 08:25:22;;;;;;;8.93;4.90;;;19.00;60.00;;;;;;4995018;28;20030;-53
2024/03/28 08:27:47;;;;;;;9.13;5.10;;;19.00;60.00;;;;;;4998053;28;20112;-53
2024/03/28 08:30:13;;;;;;;9.27;5.30;;;19.00;60.10;;;;;;4994813;28;20484;-52
2024/03/28 08:32:38;;;;;;;9.70;4.63;;;19.00;60.00;;;;;;4996663;28;20038;-50
2024/03/28 08:35:04;;;;;;;10.13;4.75;;;19.00;60.10;;;;;;4999374;28;20030;-50
2024/03/28 08:37:30;;;;;;;9.95;4.50;;;19.00;60.10;;;;;;4998834;28;20034;-52
2024/03/28 08:39:55;;;;;;;7.10;4.78;;;19.00;60.00;;;;;;5001846;28;20109;-52
2024/03/28 08:42:21;;;;;;;9.48;5.22;;;19.00;60.00;;;;;;5001117;28;20442;-51
2024/03/28 08:44:47;;;;;;;11.88;5.03;;;19.00;59.90;;;;;;4968566;28;20030;-54
2024/03/28 08:47:14;;;;;;;8.95;4.38;;;19.00;59.80;;;;;;4995642;28;20056;-53
2024/03/28 08:49:39;;;;;;;9.18;4.90;;;19.00;59.70;;;;;;4996298;28;20462;-53
2024/03/28 08:52:05;;;;;;;8.10;4.60;;;19.00;59.60;;;;;;4988609;28;20041;-52
2024/03/28 08:54:31;;;;;;;8.45;4.53;;;19.10;59.60;;;;;;5000159;28;20018;-52
2024/03/28 08:56:57;;;;;;;7.60;4.72;;;19.10;59.50;;;;;;4999740;28;20022;-53
2024/03/28 08:59:23;;;;;;;10.25;4.55;;;19.10;59.50;;;;;;5003193;28;20112;-53
2024/03/28 09:01:49;;;;;;;7.25;4.40;;;19.20;59.40;;;;;;4994578;28;20049;-53
2024/03/28 09:04:19;;;;;;;8.30;4.57;;;19.20;59.40;;;;;;5005153;28;20732;-52
2024/03/28 09:06:45;;;;;;;8.13;4.43;;;19.20;59.30;;;;;;4968188;28;20031;-51
2024/03/28 09:09:12;;;;;;;7.03;4.45;;;19.20;59.30;;;;;;5004484;28;20467;-51
2024/03/28 09:11:38;;;;;;;9.60;4.82;;;19.20;59.30;;;;;;4979240;28;20117;-53
2024/03/28 09:14:03;;;;;;;9.75;5.70;;;19.20;59.30;;;;;;5003676;28;20121;-51
2024/03/28 09:16:35;;;;;;;7.40;4.15;;;19.30;59.20;;;;;;5002395;28;20125;-53
2024/03/28 09:19:01;;;;;;;7.35;4.00;;;19.30;59.10;;;;;;4996856;28;20030;-52
2024/03/28 09:21:27;;;;;;;8.18;5.05;;;19.30;59.10;;;;;;4999907;28;20121;-52
2024/03/28 09:23:54;;;;;;;7.82;4.15;;;19.40;59.10;;;;;;5005536;28;20109;-52
2024/03/28 09:26:20;;;;;;;8.10;4.22;;;19.40;59.10;;;;;;5001006;28;20026;-53
2024/03/28 09:28:46;;;;;;;7.35;3.83;;;19.30;58.90;;;;;;5001306;28;20044;-53
2024/03/28 09:31:11;;;;;;;6.75;4.55;;;19.40;59.00;;;;;;4995327;28;20133;-52
2024/03/28 09:33:37;;;;;;;7.32;4.28;;;19.40;59.00;;;;;;5004053;28;20122;-53
2024/03/28 09:36:04;;;;;;;8.50;4.03;;;19.40;58.90;;;;;;4996110;28;20037;-51
2024/03/28 09:38:30;;;;;;;7.78;3.75;;;19.40;58.80;;;;;;5004459;28;20041;-51
2024/03/28 09:40:59;;;;;;;9.35;4.32;;;19.40;58.80;;;;;;4999327;28;20541;-50
2024/03/28 09:43:26;;;;;;;6.15;3.60;;;19.50;58.90;;;;;;4998520;28;20088;-54
2024/03/28 09:45:53;;;;;;;6.47;3.35;;;19.50;58.80;;;;;;5002016;28;20034;-52
2024/03/28 09:48:21;;;;;;;5.47;3.67;;;19.50;58.80;;;;;;5002311;28;20050;-54
2024/03/28 09:50:48;;;;;;;9.80;4.43;;;19.50;58.80;;;;;;5000006;28;20042;-53
2024/03/28 09:53:15;;;;;;;7.78;3.85;;;19.50;58.70;;;;;;5001467;28;20026;-51
2024/03/28 09:55:41;;;;;;;5.90;3.40;;;19.50;58.70;;;;;;4999899;28;20121;-52
2024/03/28 09:58:09;;;;;;;8.52;4.00;;;19.50;58.70;;;;;;5000325;28;20109;-53
2024/03/28 10:00:36;;;;;;;6.35;3.22;;;19.50;58.60;;;;;;5002159;28;20030;-52
2024/03/28 10:03:14;;;;;;;7.63;3.70;;;19.50;58.60;;;;;;5000617;28;20125;-53
2024/03/28 10:05:40;;;;;;;6.90;3.97;;;19.50;58.60;;;;;;4996699;28;20173;-51
2024/03/28 10:08:05;;;;;;;7.47;3.90;;;19.50;58.70;;;;;;4998317;28;20030;-52
2024/03/28 10:10:32;;;;;;;6.43;3.38;;;19.50;58.70;;;;;;4997874;28;20402;-48
2024/03/28 10:12:58;;;;;;;6.22;3.40;;;19.50;58.60;;;;;;5003007;28;20156;-52
2024/03/28 10:15:24;;;;;;;5.75;3.75;;;19.50;58.60;;;;;;5003057;28;20062;-50
2024/03/28 10:18:00;;;;;;;6.63;3.83;;;19.60;58.60;;;;;;5004328;28;20164;-52
2024/03/28 10:20:27;;;;;;;6.30;3.58;;;19.50;58.60;;;;;;5002640;28;20036;-52
2024/03/28 10:22:52;;;;;;;5.82;3.58;;;19.50;58.60;;;;;;5004085;28;20038;-53
2024/03/28 10:25:19;;;;;;;6.88;3.25;;;19.50;58.60;;;;;;4999990;28;20034;-52
2024/03/28 10:27:45;;;;;;;7.75;3.92;;;19.50;58.60;;;;;;5003876;28;20032;-52
2024/03/28 10:30:22;;;;;;;6.43;3.97;;;19.60;58.70;;;;;;4999588;28;20384;-53
2024/03/28 10:32:58;;;;;;;6.60;3.08;;;19.50;58.70;;;;;;4997620;28;20037;-52
2024/03/28 10:35:24;;;;;;;6.60;3.22;;;19.50;58.70;;;;;;5000385;28;20041;-50
2024/03/28 10:38:02;;;;;;;4.38;2.80;;;19.50;58.70;;;;;;5004083;28;20032;-54
2024/03/28 10:40:28;;;;;;;5.22;3.33;;;19.50;58.70;;;;;;5003276;22;20051;-51
2024/03/28 10:43:01;;;;;;;6.28;3.30;;;19.60;58.70;;;;;;5008272;28;20042;-51
2024/03/28 10:45:31;;;;;;;6.60;3.55;;;19.50;58.70;;;;;;4999630;28;20021;-55
2024/03/28 10:47:58;;;;;;;6.82;3.67;;;19.60;58.70;;;;;;5004468;28;20030;-51
2024/03/28 10:50:43;;;;;;;5.40;3.22;;;19.50;58.70;;;;;;4977004;28;20120;-53
2024/03/28 10:53:23;;;;;;;4.93;3.00;;;19.50;58.70;;;;;;5005490;28;20030;-52
2024/03/28 10:55:56;;;;;;;4.75;2.97;;;19.50;58.70;;;;;;5009242;28;20372;-52
2024/03/28 10:58:23;;;;;;;4.22;2.95;;;19.60;58.80;;;;;;5005820;28;20030;-50
2024/03/28 11:00:50;;;;;;;4.43;3.38;;;19.50;58.80;;;;;;5002796;28;20029;-51
2024/03/28 11:03:17;;;;;;;4.22;2.72;;;19.60;58.80;;;;;;5007644;28;20032;-49
2024/03/28 11:05:43;;;;;;;6.00;3.03;;;19.50;58.70;;;;;;5006603;28;20026;-51
2024/03/28 11:08:09;;;;;;;5.97;2.88;;;19.60;58.80;;;;;;5006081;28;20037;-54
2024/03/28 11:10:36;;;;;;;5.50;3.20;;;19.50;58.70;;;;;;5010450;28;20045;-51
2024/03/28 11:13:01;;;;;;;7.50;3.15;;;19.50;58.70;;;;;;5005180;28;20034;-54
2024/03/28 11:15:27;;;;;;;4.35;2.67;;;19.50;58.70;;;;;;5007847;28;20045;-54
2024/03/28 11:17:52;;;;;;;4.28;2.60;;;19.50;58.70;;;;;;4998295;28;20026;-51
2024/03/28 11:20:19;;;;;;;5.15;2.70;;;19.60;58.80;;;;;;5003637;28;20550;-49
2024/03/28 11:22:46;;;;;;;4.60;2.78;;;19.60;58.80;;;;;;5002659;28;20080;-50
2024/03/28 11:25:28;;;;;;;4.97;3.00;;;19.50;58.80;;;;;;5006436;28;20128;-50
2024/03/28 11:28:04;;;;;;;3.80;2.38;;;19.50;58.80;;;;;;5016141;28;20043;-51
2024/03/28 11:30:29;;;;;;;4.93;3.20;;;19.60;58.90;;;;;;4994454;28;21011;-51
2024/03/28 11:33:10;;;;;;;4.95;2.72;;;19.50;58.80;;;;;;5002475;28;20064;-53
2024/03/28 11:35:42;;;;;;;3.20;2.60;;;19.60;58.80;;;;;;5027499;28;20128;-51
2024/03/28 11:38:09;;;;;;;5.47;2.90;;;19.50;58.70;;;;;;5006713;28;20034;-52
2024/03/28 11:40:36;;;;;;;5.15;2.97;;;19.60;58.90;;;;;;5000977;28;20030;-50
2024/03/28 11:43:15;;;;;;;5.18;2.40;;;19.60;58.90;;;;;;5004059;28;20044;-51
2024/03/28 11:46:01;;;;;;;4.15;2.17;;;19.50;58.90;;;;;;5002870;28;20084;-51
2024/03/28 11:48:31;;;;;;;3.92;2.20;;;19.50;59.10;;;;;;5002095;28;20095;-52
2024/03/28 11:50:57;;;;;;;3.80;2.45;;;19.50;59.00;;;;;;5001087;28;20088;-53
2024/03/28 11:53:23;;;;;;;5.10;2.75;;;19.50;59.00;;;;;;5007158;28;20057;-53
2024/03/28 11:55:50;;;;;;;4.07;2.88;;;19.50;59.00;;;;;;5003355;28;20080;-50
2024/03/28 11:58:18;;;;;;;5.22;2.30;;;19.50;59.00;;;;;;5004255;28;20038;-57
2024/03/28 12:00:44;;;;;;;4.53;2.58;;;19.50;59.00;;;;;;5004402;28;20030;-52
2024/03/28 12:03:11;;;;;;;3.20;2.28;;;19.50;58.90;;;;;;5005641;28;20045;-50
2024/03/28 12:05:37;;;;;;;3.38;2.20;;;19.50;59.00;;;;;;5002834;28;20057;-50
2024/03/28 12:08:04;;;;;;;3.50;2.40;;;19.50;59.00;;;;;;4992116;28;20038;-51
2024/03/28 12:10:29;;;;;;;4.07;2.05;;;19.50;59.00;;;;;;5002150;28;20030;-52
2024/03/28 12:12:55;;;;;;;3.78;2.08;;;19.50;59.10;;;;;;5002571;28;20048;-53
2024/03/28 12:15:20;;;;;;;2.75;2.05;;;19.50;59.10;;;;;;5005421;28;20037;-52
2024/03/28 12:17:46;;;;;;;3.05;2.00;;;19.50;59.10;;;;;;5003704;28;21710;-52
2024/03/28 12:20:20;;;;;;;3.25;2.00;;;19.50;59.10;;;;;;5012531;28;20038;-52
2024/03/28 12:22:49;;;;;;;3.72;2.63;;;19.50;59.10;;;;;;5012059;28;20117;-52
2024/03/28 12:25:15;;;;;;;3.45;2.00;;;19.50;59.10;;;;;;5024400;28;20025;-53
2024/03/28 12:27:42;;;;;;;3.38;2.10;;;19.40;59.10;;;;;;5028890;28;20037;-54
2024/03/28 12:30:11;;;;;;;5.03;2.40;;;19.50;59.10;;;;;;5020584;28;21847;-52
2024/03/28 12:32:38;;;;;;;3.40;1.80;;;19.50;59.10;;;;;;5027206;28;22327;-51
2024/03/28 12:35:05;;;;;;;3.47;2.17;;;19.50;59.10;;;;;;5014357;28;20037;-51
2024/03/28 12:37:34;;;;;;;3.83;2.35;;;19.50;59.10;;;;;;5003596;28;20093;-52
2024/03/28 12:40:09;;;;;;;4.18;2.15;;;19.50;59.10;;;;;;5002591;28;20026;-52
2024/03/28 12:42:36;;;;;;;4.28;2.20;;;19.50;59.10;;;;;;4998306;28;20136;-52
2024/03/28 12:45:21;;;;;;;2.95;1.75;;;19.50;59.10;;;;;;5004807;28;20173;-52
2024/03/28 12:47:48;;;;;;;3.58;1.90;;;19.50;59.10;;;;;;5010432;28;20144;-51